Time;durP1;ratioP1;P1;durP2;ratioP2;P2;SDS_P1;SDS_P2;PMS_P1;PMS_P2;Temp;Humidity;BMP_temperature;BMP_pressure;BME280_temperature;BME280_humidity;BME280_pressure;Samples;Min_cycle;Max_cycle;Signal;HPM_P1;HPM_P2
2022/10/16 00:00:44;;;;;;;4.88;4.68;;;;;;;12.36;100.00;100631.78;6038260;23;20574;-73
2022/10/16 00:03:10;;;;;;;4.95;4.65;;;;;;;12.25;100.00;100607.94;6081041;23;20422;-73
2022/10/16 00:05:42;;;;;;;4.78;4.57;;;;;;;12.30;100.00;100626.91;6066608;23;20032;-73
2022/10/16 00:08:12;;;;;;;5.00;4.70;;;;;;;12.27;100.00;100632.38;6044614;23;20592;-71
2022/10/16 00:10:39;;;;;;;4.78;4.57;;;;;;;11.93;100.00;100586.19;6089375;23;20783;-73
2022/10/16 00:13:05;;;;;;;5.30;5.03;;;;;;;12.24;100.00;100634.31;6044447;23;20015;-73
2022/10/16 00:15:38;;;;;;;6.63;5.38;;;;;;;12.23;100.00;100630.84;6080950;23;20033;-73
2022/10/16 00:18:05;;;;;;;5.10;4.80;;;;;;;11.99;100.00;100604.22;6086760;23;20014;-72
2022/10/16 00:20:34;;;;;;;5.25;4.82;;;;;;;11.84;100.00;100591.94;6051049;23;20094;-72
2022/10/16 00:23:01;;;;;;;5.40;5.10;;;;;;;11.86;100.00;100593.53;6083145;23;20028;-72
2022/10/16 00:25:27;;;;;;;4.68;4.47;;;;;;;12.20;100.00;100651.22;6086166;23;20087;-72
2022/10/16 00:27:53;;;;;;;4.95;4.75;;;;;;;11.69;100.00;100570.91;6059796;23;20084;-71
2022/10/16 00:30:20;;;;;;;5.32;5.05;;;;;;;11.78;100.00;100577.38;6080488;23;20022;-71
2022/10/16 00:32:46;;;;;;;5.25;4.97;;;;;;;12.13;100.00;100646.34;6055917;23;20095;-72
2022/10/16 00:35:12;;;;;;;5.50;5.20;;;;;;;11.62;100.00;100559.03;6043672;23;20809;-72
2022/10/16 00:37:39;;;;;;;5.00;4.70;;;;;;;11.67;100.00;100566.66;6078516;23;20022;-72
2022/10/16 00:40:06;;;;;;;5.40;5.10;;;;;;;11.84;100.00;100590.16;6080548;23;20159;-72
2022/10/16 00:42:32;;;;;;;5.57;5.22;;;;;;;11.84;100.00;100599.84;6085678;23;20021;-74
2022/10/16 00:44:59;;;;;;;4.80;4.60;;;;;;;12.01;100.00;100631.28;6061731;23;20044;-72
2022/10/16 00:47:47;;;;;;;5.20;4.90;;;;;;;11.78;100.00;100606.31;6042752;23;20031;-71
2022/10/16 00:50:23;;;;;;;5.30;4.85;;;;;;;11.61;100.00;100565.25;6069623;23;20026;-73
2022/10/16 00:52:51;;;;;;;4.65;4.45;;;;;;;11.95;100.00;100618.50;6078523;23;20498;-71
2022/10/16 00:55:18;;;;;;;5.10;4.90;;;;;;;11.94;100.00;100616.78;6046854;23;20048;-72
2022/10/16 00:57:45;;;;;;;4.80;4.55;;;;;;;11.94;100.00;100612.38;6057948;23;20083;-72
2022/10/16 01:00:16;;;;;;;4.90;4.65;;;;;;;11.64;100.00;100577.34;6044032;23;20053;-73
2022/10/16 01:02:42;;;;;;;4.90;4.70;;;;;;;11.77;100.00;100599.38;6079152;23;20026;-73
2022/10/16 01:05:09;;;;;;;4.78;4.57;;;;;;;11.41;100.00;100548.00;6062913;23;20018;-73
2022/10/16 01:08:01;;;;;;;5.32;5.03;;;;;;;11.96;100.00;100630.69;6054052;23;20640;-71
2022/10/16 01:10:45;;;;;;;4.80;4.60;;;;;;;11.78;100.00;100606.31;6034269;23;20034;-73
2022/10/16 01:13:21;;;;;;;4.72;4.53;;;;;;;11.83;100.00;100621.84;6054899;23;20021;-73
2022/10/16 01:16:15;;;;;;;4.90;4.70;;;;;;;11.46;100.00;100560.88;6079539;23;20022;-70
2022/10/16 01:18:57;;;;;;;5.30;4.90;;;;;;;11.41;100.00;100552.44;6081975;23;20470;-72
2022/10/16 01:21:28;;;;;;;5.03;4.78;;;;;;;11.91;100.00;100664.34;6072362;23;20033;-72
2022/10/16 01:24:09;;;;;;;5.20;4.80;;;;;;;11.88;100.00;100630.28;6082308;23;20088;-75
2022/10/16 01:26:54;;;;;;;4.82;4.63;;;;;;;11.93;100.00;100639.63;6038394;23;20033;-72
2022/10/16 01:29:28;;;;;;;5.15;4.85;;;;;;;11.71;100.00;100586.59;6074797;23;20108;-72
2022/10/16 01:32:01;;;;;;;4.95;4.75;;;;;;;11.72;100.00;100570.69;6060715;23;20022;-72
2022/10/16 01:34:46;;;;;;;5.13;4.82;;;;;;;12.04;100.00;100607.41;6056077;23;20439;-72
2022/10/16 01:37:17;;;;;;;5.47;5.18;;;;;;;11.79;100.00;100571.19;6068814;23;20106;-73
2022/10/16 01:39:47;;;;;;;4.88;4.68;;;;;;;12.06;100.00;100610.81;6082828;23;20030;-71
2022/10/16 01:42:21;;;;;;;5.15;4.85;;;;;;;11.58;100.00;100534.72;6047541;23;20092;-72
2022/10/16 01:44:50;;;;;;;5.10;4.80;;;;;;;11.64;100.00;100537.94;6053806;23;20084;-72
2022/10/16 01:47:19;;;;;;;5.32;5.03;;;;;;;12.08;100.00;100602.81;6023851;23;20022;-71
2022/10/16 01:49:46;;;;;;;5.05;4.80;;;;;;;11.76;100.00;100558.22;6075357;23;20088;-71
2022/10/16 01:52:17;;;;;;;5.18;4.88;;;;;;;12.02;100.00;100601.41;6053929;23;20026;-73
2022/10/16 01:54:47;;;;;;;4.88;4.68;;;;;;;12.08;100.00;100615.97;6079099;23;20081;-71
2022/10/16 01:57:15;;;;;;;5.57;5.28;;;;;;;12.12;100.00;100622.75;6040879;23;20034;-72
2022/10/16 01:59:46;;;;;;;4.70;4.50;;;;;;;12.08;100.00;100611.56;6074995;23;20022;-71
2022/10/16 02:02:15;;;;;;;4.75;4.55;;;;;;;12.11;100.00;100616.66;6075752;23;20038;-72
2022/10/16 02:04:52;;;;;;;4.78;4.57;;;;;;;12.17;100.00;100616.28;6042666;23;20026;-72
2022/10/16 02:07:19;;;;;;;4.82;4.63;;;;;;;11.99;100.00;100591.09;6078542;23;20034;-71
2022/10/16 02:09:46;;;;;;;4.75;4.55;;;;;;;12.12;100.00;100606.97;6052552;23;20092;-72
2022/10/16 02:12:23;;;;;;;5.38;5.07;;;;;;;12.21;100.00;100614.31;6071187;23;20021;-73
2022/10/16 02:14:50;;;;;;;4.80;4.60;;;;;;;12.23;100.00;100637.88;6047742;23;20096;-72
2022/10/16 02:17:18;;;;;;;5.10;4.80;;;;;;;12.03;100.00;100596.97;6081193;23;20014;-73
2022/10/16 02:19:47;;;;;;;5.28;4.97;;;;;;;12.13;100.00;100619.19;6051883;23;20030;-71
2022/10/16 02:22:36;;;;;;;4.65;4.45;;;;;;;12.26;100.00;100630.66;6054462;23;20023;-73
2022/10/16 02:25:02;;;;;;;4.82;4.63;;;;;;;12.25;100.00;100633.38;6045174;23;20102;-72
2022/10/16 02:27:38;;;;;;;4.93;4.72;;;;;;;11.27;100.00;100470.00;6081586;23;20009;-73
2022/10/16 02:30:17;;;;;;;5.00;4.80;;;;;;;12.00;100.00;100594.56;6044545;23;20392;-72
2022/10/16 02:32:48;;;;;;;5.32;5.03;;;;;;;12.28;100.00;100638.47;6082690;23;20009;-73
2022/10/16 02:35:19;;;;;;;5.00;4.70;;;;;;;12.01;100.00;100583.06;6078098;23;20139;-72
2022/10/16 02:37:48;;;;;;;4.95;4.75;;;;;;;11.87;100.00;100562.88;6067279;23;20025;-73
2022/10/16 02:40:16;;;;;;;5.40;5.00;;;;;;;12.30;100.00;100640.06;6038198;23;20121;-72
2022/10/16 02:42:51;;;;;;;5.10;4.80;;;;;;;12.30;100.00;100642.69;6047383;23;20645;-72
2022/10/16 02:45:18;;;;;;;4.88;4.68;;;;;;;11.91;100.00;100562.59;6051176;23;20147;-74
2022/10/16 02:47:45;;;;;;;4.85;4.60;;;;;;;12.27;100.00;100629.72;6072322;23;20822;-72
2022/10/16 02:50:11;;;;;;;4.90;4.70;;;;;;;12.28;100.00;100639.31;6049720;23;20100;-71
2022/10/16 02:52:38;;;;;;;5.07;4.78;;;;;;;11.85;100.00;100565.56;6047819;23;20006;-71
2022/10/16 02:55:05;;;;;;;4.97;4.78;;;;;;;12.28;100.00;100636.66;6052331;23;20037;-73
2022/10/16 02:57:31;;;;;;;4.90;4.65;;;;;;;12.14;100.00;100613.81;6075920;23;20501;-73
2022/10/16 03:00:00;;;;;;;4.82;4.53;;;;;;;12.22;100.00;100634.41;6047094;23;20027;-72
2022/10/16 03:02:27;;;;;;;4.60;4.40;;;;;;;11.97;100.00;100604.31;6069883;23;20073;-72
2022/10/16 03:04:53;;;;;;;5.15;4.85;;;;;;;11.96;100.00;100612.28;6044496;23;20027;-72
2022/10/16 03:07:19;;;;;;;5.35;5.05;;;;;;;11.95;100.00;100626.41;6079286;23;20503;-73
2022/10/16 03:09:46;;;;;;;5.32;5.03;;;;;;;12.03;100.00;100633.81;6073655;23;20030;-72
2022/10/16 03:12:12;;;;;;;5.20;4.90;;;;;;;11.82;100.00;100594.66;6075394;23;20485;-73
2022/10/16 03:14:39;;;;;;;5.10;4.80;;;;;;;12.00;100.00;100634.00;6056389;23;20038;-72
2022/10/16 03:17:06;;;;;;;5.35;5.03;;;;;;;11.47;100.00;100555.53;6083580;23;20076;-70
2022/10/16 03:19:32;;;;;;;5.05;4.85;;;;;;;11.91;100.00;100630.97;6079091;23;20034;-72
2022/10/16 03:21:59;;;;;;;5.30;5.00;;;;;;;11.94;100.00;100638.69;6092002;23;20386;-71
2022/10/16 03:24:25;;;;;;;8.15;4.93;;;;;;;11.92;100.00;100635.28;6055072;23;20023;-72
2022/10/16 03:26:51;;;;;;;15.20;5.25;;;;;;;11.91;100.00;100646.75;6052978;23;20038;-73
2022/10/16 03:29:18;;;;;;;5.22;4.90;;;;;;;11.81;100.00;100639.44;6057593;23;20010;-73
2022/10/16 03:31:44;;;;;;;4.97;4.70;;;;;;;11.90;100.00;100657.38;6052332;23;20122;-72
2022/10/16 03:34:10;;;;;;;4.97;4.70;;;;;;;11.89;100.00;100653.06;6051098;23;20518;-71
2022/10/16 03:36:37;;;;;;;4.47;4.28;;;;;;;11.87;100.00;100641.75;6078075;23;20030;-71
2022/10/16 03:39:03;;;;;;;4.85;4.65;;;;;;;11.76;100.00;100629.22;6060006;23;20497;-72
2022/10/16 03:41:29;;;;;;;4.90;4.60;;;;;;;11.85;100.00;100641.84;6083693;23;20102;-73
2022/10/16 03:43:56;;;;;;;4.65;4.45;;;;;;;11.84;100.00;100639.28;6078022;23;20025;-72
2022/10/16 03:46:22;;;;;;;4.65;4.45;;;;;;;11.73;100.00;100650.44;6068100;23;20021;-73
2022/10/16 03:48:49;;;;;;;5.68;5.10;;;;;;;11.36;100.00;100581.56;6077853;23;20010;-72
2022/10/16 03:51:15;;;;;;;4.72;4.53;;;;;;;11.42;100.00;100607.50;6077868;23;20032;-73
2022/10/16 03:53:41;;;;;;;5.00;4.78;;;;;;;11.45;100.00;100607.34;6065939;23;20086;-71
2022/10/16 03:56:08;;;;;;;4.57;4.38;;;;;;;11.54;100.00;100648.84;6086138;23;20069;-71
2022/10/16 03:58:34;;;;;;;5.00;4.70;;;;;;;11.62;100.00;100669.44;6073587;23;20522;-73
2022/10/16 04:01:00;;;;;;;4.70;4.50;;;;;;;11.18;100.00;100602.72;6084953;23;20021;-74
2022/10/16 04:03:27;;;;;;;4.60;4.40;;;;;;;11.45;100.00;100654.63;6052453;23;20034;-73
2022/10/16 04:05:53;;;;;;;4.25;4.05;;;;;;;11.55;100.00;100654.97;6058309;23;20068;-71
2022/10/16 04:08:20;;;;;;;4.72;4.53;;;;;;;11.53;100.00;100649.78;6083338;23;20109;-73
2022/10/16 04:10:46;;;;;;;4.90;4.60;;;;;;;11.52;100.00;100658.59;6049825;23;20018;-72
2022/10/16 04:13:13;;;;;;;4.63;4.43;;;;;;;11.46;100.00;100693.09;6083602;23;20034;-72
2022/10/16 04:15:39;;;;;;;4.88;4.68;;;;;;;11.50;100.00;100665.72;6082297;23;20026;-73
2022/10/16 04:18:06;;;;;;;4.82;4.63;;;;;;;11.49;100.00;100669.28;6077866;23;20022;-73
2022/10/16 04:20:33;;;;;;;4.55;4.30;;;;;;;11.50;100.00;100684.13;6085740;23;20041;-71
2022/10/16 04:22:59;;;;;;;5.00;4.70;;;;;;;11.41;100.00;100663.63;6074080;23;20084;-72
2022/10/16 04:25:26;;;;;;;4.93;4.70;;;;;;;11.51;100.00;100690.25;6077444;23;20035;-72
2022/10/16 04:27:53;;;;;;;4.63;4.43;;;;;;;11.50;100.00;100689.38;6025470;23;20040;-71
2022/10/16 04:30:21;;;;;;;4.80;4.60;;;;;;;11.38;100.00;100669.03;6082354;23;20017;-72
2022/10/16 04:32:49;;;;;;;4.50;4.30;;;;;;;10.92;100.00;100598.91;6076460;23;20072;-72
2022/10/16 04:35:20;;;;;;;4.43;4.22;;;;;;;11.15;100.00;100633.56;6056371;23;20102;-72
2022/10/16 04:37:47;;;;;;;4.57;4.38;;;;;;;10.93;100.00;100615.53;6084940;23;20013;-72
2022/10/16 04:40:14;;;;;;;4.55;4.30;;;;;;;10.91;100.00;100612.13;6058165;23;20038;-71
2022/10/16 04:42:40;;;;;;;4.65;4.45;;;;;;;11.34;100.00;100681.50;6062388;23;20015;-73
2022/10/16 04:45:08;;;;;;;4.97;4.70;;;;;;;11.36;100.00;100684.03;6071189;23;20087;-72
2022/10/16 04:47:40;;;;;;;4.40;4.20;;;;;;;11.35;100.00;100685.00;6044993;23;20034;-73
2022/10/16 04:50:06;;;;;;;5.07;4.80;;;;;;;11.34;100.00;100699.88;6083477;23;20034;-72
2022/10/16 04:52:33;;;;;;;4.72;4.53;;;;;;;11.05;100.00;100664.72;6047303;23;20036;-72
2022/10/16 04:55:01;;;;;;;6.00;4.57;;;;;;;11.34;100.00;100714.81;6049443;23;20038;-72
2022/10/16 04:57:28;;;;;;;5.13;4.82;;;;;;;11.26;100.00;100706.50;6047945;23;20017;-72
2022/10/16 04:59:55;;;;;;;4.60;4.40;;;;;;;11.34;100.00;100712.19;6045585;23;20027;-73
2022/10/16 05:02:21;;;;;;;4.55;4.35;;;;;;;11.04;100.00;100681.41;6054372;23;20052;-73
2022/10/16 05:04:48;;;;;;;4.50;4.30;;;;;;;10.89;100.00;100629.75;6051750;23;20039;-71
2022/10/16 05:07:14;;;;;;;4.85;4.65;;;;;;;11.14;100.00;100692.25;6064524;23;20026;-73
2022/10/16 05:09:40;;;;;;;4.95;4.55;;;;;;;11.23;100.00;100707.53;6056849;23;20117;-72
2022/10/16 05:12:07;;;;;;;4.65;4.45;;;;;;;10.98;100.00;100671.25;6046170;23;20069;-70
2022/10/16 05:14:33;;;;;;;4.57;4.38;;;;;;;10.80;100.00;100641.56;6053703;23;20030;-72
2022/10/16 05:17:00;;;;;;;4.50;4.30;;;;;;;11.21;100.00;100704.16;6080009;23;20034;-72
2022/10/16 05:19:26;;;;;;;4.63;4.43;;;;;;;11.27;100.00;100716.09;6057133;23;20041;-73
2022/10/16 05:21:54;;;;;;;4.78;4.57;;;;;;;11.27;100.00;100721.34;6054208;23;20033;-71
2022/10/16 05:24:21;;;;;;;4.47;4.28;;;;;;;11.33;100.00;100731.53;6027612;23;20030;-71
2022/10/16 05:26:47;;;;;;;5.13;4.72;;;;;;;10.95;100.00;100668.78;6051355;23;20507;-73
2022/10/16 05:29:14;;;;;;;4.65;4.45;;;;;;;11.32;100.00;100716.69;6050459;23;20035;-72
2022/10/16 05:31:40;;;;;;;4.50;4.30;;;;;;;11.07;100.00;100691.75;6055126;23;20419;-71
2022/10/16 05:34:07;;;;;;;4.90;4.60;;;;;;;10.75;100.00;100627.88;6079410;23;20017;-71
2022/10/16 05:36:33;;;;;;;4.50;4.30;;;;;;;11.31;100.00;100720.25;6077966;23;20100;-71
2022/10/16 05:38:59;;;;;;;5.30;4.80;;;;;;;10.81;100.00;100652.94;6061810;23;20034;-72
2022/10/16 05:41:26;;;;;;;5.45;5.07;;;;;;;11.29;100.00;100732.63;6071770;23;20156;-72
2022/10/16 05:43:53;;;;;;;4.80;4.60;;;;;;;11.26;100.00;100728.38;6048870;23;20049;-72
2022/10/16 05:46:20;;;;;;;4.70;4.50;;;;;;;11.31;100.00;100741.28;6050826;23;20024;-72
2022/10/16 05:48:46;;;;;;;5.22;4.80;;;;;;;11.24;100.00;100729.38;6056871;23;20066;-73
2022/10/16 05:51:14;;;;;;;5.05;4.50;;;;;;;11.16;100.00;100719.28;6068021;23;20534;-72
2022/10/16 05:53:41;;;;;;;4.60;4.40;;;;;;;11.37;100.00;100743.56;6064915;23;20058;-72
2022/10/16 05:56:13;;;;;;;4.43;4.22;;;;;;;11.35;100.00;100755.94;6074182;23;20018;-72
2022/10/16 05:58:41;;;;;;;4.60;4.40;;;;;;;11.40;100.00;100748.63;6083670;23;20192;-71
2022/10/16 06:01:14;;;;;;;4.80;4.60;;;;;;;11.10;100.00;100704.72;6071889;23;20422;-72
2022/10/16 06:03:41;;;;;;;4.80;4.60;;;;;;;11.41;100.00;100746.88;6055325;23;20025;-71
2022/10/16 06:06:13;;;;;;;5.20;4.90;;;;;;;11.51;100.00;100764.66;6077689;23;20013;-72
2022/10/16 06:08:41;;;;;;;4.38;4.18;;;;;;;11.57;100.00;100764.34;6049615;23;20032;-75
2022/10/16 06:11:11;;;;;;;4.60;4.40;;;;;;;11.64;100.00;100764.00;6047889;23;20033;-73
2022/10/16 06:13:38;;;;;;;4.68;4.47;;;;;;;11.64;100.00;100756.09;6063727;23;20517;-74
2022/10/16 06:16:05;;;;;;;4.55;4.35;;;;;;;11.18;100.00;100668.41;6050945;23;20431;-73
2022/10/16 06:18:34;;;;;;;4.50;4.30;;;;;;;11.61;100.00;100756.28;6078726;23;20033;-74
2022/10/16 06:21:07;;;;;;;4.57;4.38;;;;;;;11.76;100.00;100768.56;6046643;23;20026;-73
2022/10/16 06:23:34;;;;;;;4.45;4.25;;;;;;;11.67;100.00;100759.41;6050136;23;20030;-74
2022/10/16 06:26:08;;;;;;;5.03;4.82;;;;;;;11.67;100.00;100758.56;6045836;23;20824;-74
2022/10/16 06:28:34;;;;;;;4.80;4.60;;;;;;;11.83;100.00;100775.19;6053303;23;20038;-75
2022/10/16 06:31:03;;;;;;;4.75;4.50;;;;;;;11.88;100.00;100782.81;6046845;23;20495;-75
2022/10/16 06:33:34;;;;;;;6.10;4.72;;;;;;;11.87;100.00;100768.81;6053056;23;20105;-76
2022/10/16 06:36:14;;;;;;;4.85;4.65;;;;;;;11.90;100.00;100779.19;6056748;23;20644;-74
2022/10/16 06:38:41;;;;;;;4.90;4.60;;;;;;;11.94;100.00;100791.22;6055162;23;20022;-74
2022/10/16 06:41:11;;;;;;;5.18;4.78;;;;;;;12.00;100.00;100797.06;6050700;23;20029;-74
2022/10/16 06:43:38;;;;;;;4.75;4.55;;;;;;;12.06;100.00;100802.00;6045589;23;20025;-73
2022/10/16 06:46:07;;;;;;;5.20;4.90;;;;;;;11.83;100.00;100771.72;6055377;23;20006;-74
2022/10/16 06:48:34;;;;;;;4.93;4.70;;;;;;;12.04;100.00;100809.97;6071001;23;20017;-74
2022/10/16 06:51:17;;;;;;;4.70;4.50;;;;;;;12.29;100.00;100819.09;6082790;23;20029;-73
2022/10/16 06:53:46;;;;;;;4.80;4.60;;;;;;;12.39;100.00;100822.91;6081376;23;20026;-74
2022/10/16 06:56:31;;;;;;;4.60;4.40;;;;;;;12.34;100.00;100802.09;6053583;23;20094;-74
2022/10/16 06:58:58;;;;;;;5.00;4.70;;;;;;;12.24;100.00;100774.63;6080458;23;20054;-73
2022/10/16 07:01:25;;;;;;;4.90;4.70;;;;;;;12.74;100.00;100846.31;6048913;23;20096;-74
2022/10/16 07:03:52;;;;;;;4.80;4.60;;;;;;;12.74;100.00;100856.84;6082862;23;20025;-74
2022/10/16 07:06:20;;;;;;;4.82;4.63;;;;;;;12.69;100.00;100859.75;6036406;23;20022;-74
2022/10/16 07:08:48;;;;;;;5.00;4.70;;;;;;;12.34;100.00;100806.50;6069270;23;20088;-73
2022/10/16 07:11:17;;;;;;;5.60;5.30;;;;;;;12.35;100.00;100832.75;6050710;23;20086;-73
2022/10/16 07:13:45;;;;;;;14.20;13.40;;;;;;;12.44;100.00;100860.31;6011949;23;20014;-74
2022/10/16 07:16:23;;;;;;;4.97;4.68;;;;;;;12.53;100.00;100888.75;5984627;23;20085;-74
2022/10/16 07:18:57;;;;;;;4.60;4.40;;;;;;;12.47;100.00;100889.09;6053290;23;20587;-74
2022/10/16 07:21:36;;;;;;;5.85;5.35;;;;;;;11.73;100.00;100774.84;6070576;23;20030;-74
2022/10/16 07:24:13;;;;;;;5.00;4.70;;;;;;;12.37;100.00;100894.03;6056995;23;20034;-75
2022/10/16 07:26:40;;;;;;;5.05;4.80;;;;;;;12.42;100.00;100898.19;6086340;23;20025;-74
2022/10/16 07:29:13;;;;;;;4.80;4.60;;;;;;;12.46;100.00;100889.19;6050301;23;20037;-74
2022/10/16 07:31:40;;;;;;;5.35;5.05;;;;;;;12.53;100.00;100904.56;6081901;23;20033;-76
2022/10/16 07:34:06;;;;;;;5.15;4.95;;;;;;;12.54;100.00;100900.97;6077271;23;20017;-76
2022/10/16 07:36:33;;;;;;;5.03;4.72;;;;;;;12.12;100.00;100831.41;6081230;23;20030;-75
2022/10/16 07:38:59;;;;;;;4.75;4.53;;;;;;;12.53;100.00;100898.44;6045271;23;20038;-74
2022/10/16 07:41:26;;;;;;;5.00;4.72;;;;;;;12.00;100.00;100828.63;6076979;23;20084;-74
2022/10/16 07:43:54;;;;;;;5.50;4.53;;;;;;;12.45;100.00;100904.16;6082985;23;20029;-75
2022/10/16 07:46:22;;;;;;;5.20;4.90;;;;;;;12.46;100.00;100915.50;6044040;23;20026;-74
2022/10/16 07:48:49;;;;;;;4.80;4.55;;;;;;;12.16;100.00;100866.31;6081081;23;20034;-74
2022/10/16 07:51:21;;;;;;;5.25;4.85;;;;;;;12.64;100.00;100903.09;6054656;23;20053;-75
2022/10/16 07:53:51;;;;;;;5.07;4.78;;;;;;;12.88;100.00;100919.25;6081457;23;21351;-74
2022/10/16 07:56:18;;;;;;;5.50;5.20;;;;;;;13.02;100.00;100919.28;6044431;23;20040;-75
2022/10/16 07:58:46;;;;;;;5.43;5.13;;;;;;;13.05;100.00;100910.34;6056111;23;20116;-74
2022/10/16 08:01:14;;;;;;;4.85;4.57;;;;;;;13.39;100.00;100943.50;6074050;23;20064;-75
2022/10/16 08:03:46;;;;;;;5.47;5.07;;;;;;;13.53;100.00;100950.56;6039969;23;20034;-75
2022/10/16 08:06:13;;;;;;;4.97;4.68;;;;;;;13.20;100.00;100879.63;6078660;23;20093;-74
2022/10/16 08:08:40;;;;;;;5.20;5.00;;;;;;;13.63;100.00;100938.53;6076005;23;20671;-75
2022/10/16 08:11:06;;;;;;;5.05;4.85;;;;;;;13.84;100.00;100960.09;6047297;23;20045;-74
2022/10/16 08:13:33;;;;;;;5.45;5.15;;;;;;;13.98;100.00;100972.44;6068284;23;20022;-74
2022/10/16 08:16:00;;;;;;;6.63;5.20;;;;;;;13.48;100.00;100873.53;6078765;23;20022;-73
2022/10/16 08:18:27;;;;;;;5.30;5.00;;;;;;;14.17;100.00;100966.84;6083003;23;20126;-74
2022/10/16 08:20:58;;;;;;;8.15;5.63;;;;;;;14.26;100.00;100960.97;6061484;23;20041;-75
2022/10/16 08:23:25;;;;;;;4.88;4.57;;;;;;;13.58;100.00;100843.03;6082287;23;20049;-74
2022/10/16 08:25:55;;;;;;;4.72;4.53;;;;;;;14.24;100.00;100933.00;6084791;23;20261;-74
2022/10/16 08:28:22;;;;;;;4.72;4.53;;;;;;;14.32;100.00;100936.84;6093334;23;20030;-74
2022/10/16 08:30:49;;;;;;;5.07;4.78;;;;;;;14.62;100.00;100980.72;6066702;23;20034;-74
2022/10/16 08:33:15;;;;;;;5.00;4.70;;;;;;;14.86;100.00;101004.72;6089182;23;20098;-73
2022/10/16 08:35:41;;;;;;;4.95;4.75;;;;;;;14.55;100.00;100938.00;6083089;23;20088;-76
2022/10/16 08:38:08;;;;;;;5.15;4.95;;;;;;;15.06;100.00;101016.63;6072569;23;20010;-74
2022/10/16 08:40:36;;;;;;;4.90;4.70;;;;;;;15.10;100.00;101015.47;6049265;23;20026;-74
2022/10/16 08:43:23;;;;;;;5.70;5.38;;;;;;;14.91;100.00;100983.25;6052106;23;20026;-74
2022/10/16 08:46:19;;;;;;;5.32;5.05;;;;;;;15.36;100.00;101036.69;6081938;23;20018;-74
2022/10/16 08:48:54;;;;;;;5.22;4.95;;;;;;;15.41;100.00;101034.56;6079049;23;20447;-75
2022/10/16 08:51:24;;;;;;;5.43;5.13;;;;;;;15.50;100.00;101035.75;6053328;23;20120;-72
2022/10/16 08:53:55;;;;;;;5.47;5.15;;;;;;;15.56;100.00;101028.25;6088131;23;20037;-74
2022/10/16 08:56:22;;;;;;;5.10;4.90;;;;;;;15.64;100.00;101038.31;6057454;23;20021;-75
2022/10/16 08:58:49;;;;;;;5.25;4.97;;;;;;;15.64;100.00;101032.19;6080139;23;20014;-74
2022/10/16 09:01:25;;;;;;;5.40;5.10;;;;;;;15.69;100.00;101024.75;6054957;23;20038;-75
2022/10/16 09:04:00;;;;;;;5.72;5.32;;;;;;;15.91;100.00;101040.03;6051858;23;20085;-75
2022/10/16 09:06:33;;;;;;;5.50;5.20;;;;;;;16.04;100.00;101043.53;6032270;23;20113;-75
2022/10/16 09:09:11;;;;;;;13.55;5.38;;;;;;;16.11;100.00;101038.66;6069561;23;20451;-74
2022/10/16 09:11:50;;;;;;;5.20;5.00;;;;;;;16.21;100.00;101045.00;6078288;23;20656;-74
2022/10/16 09:14:41;;;;;;;8.57;5.63;;;;;;;16.32;100.00;101044.25;6052260;23;20022;-75
2022/10/16 09:17:46;;;;;;;5.35;5.05;;;;;;;16.40;100.00;101031.31;6051977;23;20516;-75
2022/10/16 09:20:19;;;;;;;5.10;4.90;;;;;;;16.44;100.00;101046.03;6029435;23;20485;-75
2022/10/16 09:22:46;;;;;;;5.03;4.82;;;;;;;16.55;100.00;101047.91;6077031;23;20502;-76
2022/10/16 09:25:16;;;;;;;5.30;5.00;;;;;;;16.68;100.00;101055.84;6058602;23;20052;-75
2022/10/16 09:27:45;;;;;;;5.00;4.80;;;;;;;16.86;100.00;101056.34;6072369;23;20491;-75
2022/10/16 09:30:14;;;;;;;7.57;5.05;;;;;;;16.87;100.00;101052.72;6077445;23;20458;-73
2022/10/16 09:32:42;;;;;;;5.07;4.78;;;;;;;16.96;100.00;101062.66;6078424;23;20048;-74
2022/10/16 09:35:21;;;;;;;5.30;5.10;;;;;;;16.72;100.00;101014.91;6051291;23;20420;-74
2022/10/16 09:37:50;;;;;;;5.30;5.00;;;;;;;16.90;100.00;101026.81;6053434;23;20014;-74
2022/10/16 09:40:30;;;;;;;5.40;5.20;;;;;;;17.18;100.00;101050.44;6077910;23;20029;-75
2022/10/16 09:43:25;;;;;;;5.35;5.15;;;;;;;17.36;100.00;101065.00;6081593;23;20185;-75
2022/10/16 09:46:20;;;;;;;11.38;5.30;;;;;;;17.33;100.00;101067.88;6054503;23;20742;-74
2022/10/16 09:48:49;;;;;;;5.45;5.15;;;;;;;17.23;100.00;101027.91;6078230;23;20030;-74
2022/10/16 09:51:23;;;;;;;5.75;5.43;;;;;;;17.48;100.00;101056.13;6023428;23;20084;-75
2022/10/16 09:54:13;;;;;;;5.68;5.38;;;;;;;17.63;100.00;101039.97;6077644;23;20048;-74
2022/10/16 09:56:40;;;;;;;5.57;5.28;;;;;;;18.05;100.00;101064.22;6019004;23;20022;-75
2022/10/16 09:59:20;;;;;;;5.40;5.20;;;;;;;17.66;98.04;100997.25;6048345;23;20087;-74
2022/10/16 10:01:53;;;;;;;6.20;5.57;;;;;;;17.74;94.63;101032.06;6014019;23;20547;-74
2022/10/16 10:04:21;;;;;;;5.70;5.40;;;;;;;17.96;94.19;101068.44;6071170;23;20552;-72
2022/10/16 10:06:48;;;;;;;5.47;5.22;;;;;;;18.17;94.12;101071.22;6051444;23;20057;-74
2022/10/16 10:09:26;;;;;;;5.72;5.43;;;;;;;18.00;95.04;101016.78;6018975;23;20023;-72
2022/10/16 10:11:58;;;;;;;5.50;5.00;;;;;;;18.49;93.42;101076.66;6046869;23;20022;-74
2022/10/16 10:14:29;;;;;;;5.22;5.03;;;;;;;18.22;91.67;101046.94;6019436;23;20023;-75
2022/10/16 10:17:18;;;;;;;5.22;5.03;;;;;;;18.53;91.95;101063.97;6073818;23;20623;-75
2022/10/16 10:20:00;;;;;;;5.40;5.20;;;;;;;18.48;89.23;101074.09;5997513;23;20096;-73
2022/10/16 10:22:39;;;;;;;5.60;5.30;;;;;;;18.66;90.40;101058.50;6073327;23;20010;-72
2022/10/16 10:25:09;;;;;;;6.00;5.70;;;;;;;18.56;86.94;101057.53;5988796;23;20206;-75
2022/10/16 10:28:14;;;;;;;5.35;5.15;;;;;;;18.18;88.81;101070.28;6077050;23;20017;-75
2022/10/16 10:30:43;;;;;;;5.63;5.32;;;;;;;17.89;90.69;101062.75;6028233;23;20030;-74
2022/10/16 10:33:16;;;;;;;5.40;5.20;;;;;;;18.06;93.15;101076.50;6052298;23;20021;-73
2022/10/16 10:35:53;;;;;;;5.50;5.20;;;;;;;17.58;93.18;100989.06;6048042;23;20077;-75
2022/10/16 10:38:38;;;;;;;5.50;5.20;;;;;;;18.28;94.21;101073.03;6045044;23;20522;-73
2022/10/16 10:41:24;;;;;;;5.43;5.22;;;;;;;18.51;93.23;101076.53;6046669;23;20077;-73
2022/10/16 10:44:18;;;;;;;5.33;5.10;;;;;;;18.77;93.22;101089.56;6022738;23;20023;-74
2022/10/16 10:47:01;;;;;;;5.35;5.05;;;;;;;18.71;90.71;101090.88;6073715;23;20022;-74
2022/10/16 10:49:43;;;;;;;5.28;5.07;;;;;;;18.46;88.60;101055.66;6050025;23;20038;-74
2022/10/16 10:52:34;;;;;;;5.38;5.18;;;;;;;18.73;88.85;101084.47;6072941;23;20025;-74
2022/10/16 10:55:10;;;;;;;5.50;5.20;;;;;;;18.73;89.41;101084.47;6070975;23;20079;-73
2022/10/16 10:58:07;;;;;;;5.30;5.10;;;;;;;18.64;89.45;101095.84;6072143;23;20091;-73
2022/10/16 11:00:53;;;;;;;5.60;5.30;;;;;;;18.54;89.93;101090.44;6034463;23;20083;-74
2022/10/16 11:03:22;;;;;;;5.80;5.50;;;;;;;18.61;91.09;101087.28;6063766;23;20025;-75
2022/10/16 11:06:07;;;;;;;5.38;5.18;;;;;;;18.60;91.66;101090.88;6057599;23;20517;-74
2022/10/16 11:08:51;;;;;;;5.43;5.15;;;;;;;18.41;91.28;101043.69;6043416;23;20672;-75
2022/10/16 11:11:36;;;;;;;5.40;5.20;;;;;;;18.60;89.63;101099.72;6049378;23;20558;-75
2022/10/16 11:14:16;;;;;;;5.50;5.30;;;;;;;18.36;91.82;101106.97;6025321;23;20026;-74
2022/10/16 11:16:53;;;;;;;6.25;5.25;;;;;;;18.20;90.75;101094.03;6064815;23;20652;-74
2022/10/16 11:19:54;;;;;;;5.78;5.38;;;;;;;18.74;91.85;101115.41;6040053;23;20025;-74
2022/10/16 11:22:35;;;;;;;5.15;4.95;;;;;;;19.02;89.35;101109.69;6051463;23;20025;-75
2022/10/16 11:25:18;;;;;;;5.60;5.30;;;;;;;19.27;88.32;101103.22;6060940;23;20672;-74
2022/10/16 11:27:57;;;;;;;5.47;5.18;;;;;;;19.19;88.03;101077.25;6069582;23;20018;-75
2022/10/16 11:30:30;;;;;;;5.60;5.30;;;;;;;19.79;86.32;101111.38;6047956;23;20023;-74
2022/10/16 11:33:18;;;;;;;5.75;5.45;;;;;;;19.91;82.06;101110.34;6056048;23;20522;-74
2022/10/16 11:36:04;;;;;;;5.50;5.30;;;;;;;19.28;79.65;101033.91;6052791;23;20014;-73
2022/10/16 11:39:03;;;;;;;6.10;5.70;;;;;;;19.73;81.13;101062.97;6040965;23;20014;-75